createdAt,value
2022-10-30T00:01:30.217Z,101592.22
2022-10-30T00:03:58.811Z,101601.06
2022-10-30T00:06:33.147Z,101601.06
2022-10-30T00:09:01.889Z,101602.81
2022-10-30T00:11:30.501Z,101604.59
2022-10-30T00:13:59.668Z,101601.94
2022-10-30T00:16:28.436Z,101609.88
2022-10-30T00:18:57.129Z,101608.13
2022-10-30T00:21:25.577Z,101609.00
2022-10-30T00:23:54.237Z,101601.06
2022-10-30T00:26:24.100Z,101606.34
2022-10-30T00:28:56.635Z,101607.25
2022-10-30T00:31:25.506Z,101610.78
2022-10-30T00:33:55.390Z,101610.75
2022-10-30T00:36:24.322Z,101609.00
2022-10-30T00:38:53.216Z,101601.06
2022-10-30T00:41:24.409Z,101603.72
2022-10-30T00:43:53.447Z,101596.63
2022-10-30T00:46:28.507Z,101609.88
2022-10-30T00:49:12.533Z,101608.97
2022-10-30T00:51:47.712Z,101598.38
2022-10-30T00:54:18.695Z,101610.72
2022-10-30T00:56:49.140Z,101613.38
2022-10-30T00:59:25.786Z,101602.78
2022-10-30T01:01:54.714Z,101601.91
2022-10-30T01:04:29.089Z,101593.94
2022-10-30T01:07:05.991Z,101597.44
2022-10-30T01:09:34.450Z,101596.53
2022-10-30T01:12:03.109Z,101593.84
2022-10-30T01:14:33.033Z,101586.81
2022-10-30T01:17:19.826Z,101592.09
2022-10-30T01:20:44.230Z,101600.00
2022-10-30T01:23:18.838Z,101592.97
2022-10-30T01:25:53.886Z,101586.78
2022-10-30T01:28:58.410Z,101586.78
2022-10-30T01:31:41.827Z,101588.53
2022-10-30T01:34:33.853Z,101584.09
2022-10-30T01:37:11.125Z,101588.50
2022-10-30T01:39:42.118Z,101587.63
2022-10-30T01:42:43.841Z,101591.13
2022-10-30T01:45:33.994Z,101598.19
2022-10-30T01:48:21.480Z,101601.72
2022-10-30T01:50:53.820Z,101600.84
2022-10-30T01:53:37.269Z,101590.22
2022-10-30T01:56:28.001Z,101596.38
2022-10-30T01:59:12.657Z,101585.78
2022-10-30T02:01:47.242Z,101591.97
2022-10-30T02:04:17.084Z,101589.28
2022-10-30T02:06:46.363Z,101584.00
2022-10-30T02:09:16.413Z,101581.38
2022-10-30T02:11:52.572Z,101587.50
2022-10-30T02:14:31.375Z,101585.75
2022-10-30T02:17:04.399Z,101589.28
2022-10-30T02:19:32.936Z,101591.91
2022-10-30T02:22:04.977Z,101600.72
2022-10-30T02:24:33.767Z,101606.91
2022-10-30T02:27:02.548Z,101599.00
2022-10-30T02:29:32.502Z,101601.63
2022-10-30T02:32:12.941Z,101588.41
2022-10-30T02:34:43.473Z,101594.56
2022-10-30T02:37:12.225Z,101594.56
2022-10-30T02:39:41.551Z,101611.31
2022-10-30T02:42:09.916Z,101604.25
2022-10-30T02:44:38.614Z,101603.41
2022-10-30T02:47:07.110Z,101621.03
2022-10-30T02:49:35.778Z,101607.81
2022-10-30T02:52:06.989Z,101608.72
2022-10-30T02:54:36.987Z,101613.09
2022-10-30T02:57:06.276Z,101613.09
2022-10-30T02:59:35.061Z,101613.09
2022-10-30T03:02:03.975Z,101606.94
2022-10-30T03:04:32.812Z,101606.94
2022-10-30T03:07:01.843Z,101609.56
2022-10-30T03:09:30.379Z,101616.63
2022-10-30T03:11:59.968Z,101614.84
2022-10-30T03:14:33.323Z,101623.69
2022-10-30T03:17:01.937Z,101616.59
2022-10-30T03:19:30.499Z,101623.63
2022-10-30T03:21:58.989Z,101621.88
2022-10-30T03:24:27.593Z,101622.72
2022-10-30T03:27:06.859Z,101622.72
2022-10-30T03:29:35.379Z,101628.00
2022-10-30T03:32:10.034Z,101624.47
2022-10-30T03:34:45.903Z,101626.22
2022-10-30T03:37:14.223Z,101630.59
2022-10-30T03:39:44.880Z,101636.78
2022-10-30T03:42:13.523Z,101636.78
2022-10-30T03:44:41.803Z,101641.19
2022-10-30T03:49:42.792Z,101642.03
2022-10-30T03:52:16.022Z,101646.44
2022-10-30T03:54:47.874Z,101643.78
2022-10-30T03:57:18.642Z,101651.69
2022-10-30T04:00:10.804Z,101665.81
2022-10-30T04:02:57.016Z,101661.38
2022-10-30T04:05:28.280Z,101654.31
2022-10-30T04:08:00.667Z,101649.91
2022-10-30T04:10:34.761Z,101664.00
2022-10-30T04:13:07.355Z,101660.47
2022-10-30T04:15:39.716Z,101654.28
2022-10-30T04:18:11.915Z,101662.19
2022-10-30T04:20:40.547Z,101664.81
2022-10-30T04:23:13.940Z,101667.44
2022-10-30T04:25:42.496Z,101668.31
2022-10-30T04:28:14.684Z,101670.06
2022-10-30T04:30:45.812Z,101663.03
2022-10-30T04:33:15.802Z,101663.00
2022-10-30T04:35:44.582Z,101669.16
2022-10-30T04:38:19.830Z,101672.66
2022-10-30T04:40:49.575Z,101678.81
2022-10-30T04:43:20.282Z,101669.97
2022-10-30T04:45:53.545Z,101670.84
2022-10-30T04:48:21.889Z,101657.63
2022-10-30T04:50:50.367Z,101666.41
2022-10-30T04:53:26.324Z,101665.50
2022-10-30T04:56:01.406Z,101661.97
2022-10-30T04:58:30.780Z,101657.53
2022-10-30T05:01:06.921Z,101649.59
2022-10-30T05:03:36.443Z,101648.66
2022-10-30T05:06:22.146Z,101650.41
2022-10-30T05:08:51.104Z,101653.00
2022-10-30T05:11:41.159Z,101651.25
2022-10-30T05:14:09.857Z,101655.63
2022-10-30T05:16:39.471Z,101650.34
2022-10-30T05:19:08.819Z,101649.47
2022-10-30T05:21:37.476Z,101653.00
2022-10-30T05:24:06.585Z,101650.34
2022-10-30T05:26:43.686Z,101644.16
2022-10-30T05:29:14.295Z,101645.91
2022-10-30T05:31:42.986Z,101639.72
2022-10-30T05:34:14.568Z,101634.47
2022-10-30T05:36:43.986Z,101626.53
2022-10-30T05:39:15.188Z,101630.06
2022-10-30T05:41:46.995Z,101627.41
2022-10-30T05:44:18.105Z,101626.50
2022-10-30T05:46:57.244Z,101623.81
2022-10-30T05:49:29.483Z,101619.44
2022-10-30T05:51:59.233Z,101634.38
2022-10-30T05:54:28.543Z,101629.09
2022-10-30T05:57:15.644Z,101637.03
2022-10-30T05:59:45.792Z,101631.72
2022-10-30T06:02:17.390Z,101629.97
2022-10-30T06:04:45.706Z,101639.63
2022-10-30T06:07:15.370Z,101636.09
2022-10-30T06:09:44.010Z,101638.75
2022-10-30T06:12:12.452Z,101644.03
2022-10-30T06:15:07.357Z,101641.38
2022-10-30T06:17:35.736Z,101640.44
2022-10-30T06:20:19.997Z,101654.56
2022-10-30T06:23:18.281Z,101655.41
2022-10-30T06:26:18.964Z,101659.81
2022-10-30T06:28:52.831Z,101661.53
2022-10-30T06:33:55.181Z,101658.91
2022-10-30T06:36:23.813Z,101660.66
2022-10-30T06:38:52.250Z,101658.91
2022-10-30T06:41:27.524Z,101654.53
2022-10-30T06:44:23.040Z,101660.69
2022-10-30T06:46:53.496Z,101664.22
2022-10-30T06:49:22.015Z,101664.22
2022-10-30T06:51:51.438Z,101664.25
2022-10-30T06:54:19.703Z,101673.06
2022-10-30T06:57:08.101Z,101668.69
2022-10-30T06:59:55.160Z,101673.09
2022-10-30T07:02:43.837Z,101673.13
2022-10-30T07:05:17.324Z,101677.53
2022-10-30T07:07:45.652Z,101674.91
2022-10-30T07:10:15.116Z,101673.16
2022-10-30T07:13:04.913Z,101677.59
2022-10-30T07:15:46.651Z,101670.53
2022-10-30T07:18:25.177Z,101681.16
2022-10-30T07:20:57.895Z,101678.50
2022-10-30T07:23:27.281Z,101682.94
2022-10-30T07:26:04.339Z,101678.56
2022-10-30T07:28:44.154Z,101680.38
2022-10-30T07:31:34.771Z,101671.59
2022-10-30T07:34:28.447Z,101677.78
2022-10-30T07:37:26.185Z,101678.69
2022-10-30T07:40:20.713Z,101678.75
2022-10-30T07:43:00.600Z,101692.88
2022-10-30T07:45:57.770Z,101688.53
2022-10-30T07:48:34.785Z,101696.50
2022-10-30T07:51:23.439Z,101695.66
2022-10-30T07:53:51.869Z,101701.91
2022-10-30T07:56:21.677Z,101707.22
2022-10-30T07:58:52.727Z,101703.75
2022-10-30T08:01:33.334Z,101702.94
2022-10-30T08:04:15.162Z,101704.69
2022-10-30T08:06:44.296Z,101703.00
2022-10-30T08:09:12.814Z,101703.03
2022-10-30T08:11:41.937Z,101704.84
2022-10-30T08:14:10.293Z,101702.25
2022-10-30T08:16:38.762Z,101698.78
2022-10-30T08:19:07.151Z,101703.25
2022-10-30T08:21:35.897Z,101711.22
2022-10-30T08:24:15.057Z,101708.69
2022-10-30T08:26:47.057Z,101709.59
2022-10-30T08:29:16.012Z,101703.44
2022-10-30T08:31:49.032Z,101707.03
2022-10-30T08:34:24.203Z,101704.41
2022-10-30T08:36:54.522Z,101708.88
2022-10-30T08:39:22.813Z,101714.19
2022-10-30T08:42:09.772Z,101706.28
2022-10-30T08:44:44.931Z,101711.56
2022-10-30T08:47:25.375Z,101711.63
2022-10-30T08:49:57.957Z,101719.59
2022-10-30T08:52:30.821Z,101720.47
2022-10-30T08:54:59.299Z,101716.94
2022-10-30T08:57:28.778Z,101718.75
2022-10-30T08:59:58.933Z,101722.25
2022-10-30T09:02:45.969Z,101735.56
2022-10-30T09:05:33.035Z,101729.38
2022-10-30T09:08:19.863Z,101732.91
2022-10-30T09:11:04.114Z,101740.00
2022-10-30T09:13:33.200Z,101735.59
2022-10-30T09:16:03.934Z,101725.84
2022-10-30T09:18:35.183Z,101729.38
2022-10-30T09:21:05.131Z,101726.69
2022-10-30T09:23:39.248Z,101730.25
2022-10-30T09:26:30.419Z,101724.91
2022-10-30T09:29:15.585Z,101723.13
2022-10-30T09:31:44.127Z,101722.22
2022-10-30T09:34:16.609Z,101724.84
2022-10-30T09:36:49.787Z,101720.38
2022-10-30T09:39:19.865Z,101724.78
2022-10-30T09:42:16.467Z,101731.88
2022-10-30T09:45:15.236Z,101730.94
2022-10-30T09:48:03.605Z,101718.53
2022-10-30T09:51:26.364Z,101725.53
2022-10-30T09:54:11.710Z,101727.28
2022-10-30T09:57:02.288Z,101724.56
2022-10-30T09:59:35.892Z,101715.69
2022-10-30T10:02:18.069Z,101724.50
2022-10-30T10:04:58.018Z,101728.91
2022-10-30T10:07:49.160Z,101730.59
2022-10-30T10:10:41.853Z,101723.47
2022-10-30T10:13:26.503Z,101720.75
2022-10-30T10:16:14.057Z,101721.63
2022-10-30T10:18:58.534Z,101724.22
2022-10-30T10:21:29.346Z,101722.34
2022-10-30T10:24:03.644Z,101729.47
2022-10-30T10:27:10.622Z,101730.34
2022-10-30T10:29:53.625Z,101731.22
2022-10-30T10:32:21.980Z,101727.66
2022-10-30T10:34:54.308Z,101734.75
2022-10-30T10:37:28.318Z,101724.09
2022-10-30T10:40:15.825Z,101718.72
2022-10-30T10:42:53.904Z,101720.44
2022-10-30T10:45:28.585Z,101728.41
2022-10-30T10:50:51.573Z,101729.16
2022-10-30T10:53:31.050Z,101725.53
2022-10-30T10:56:01.129Z,101718.31
2022-10-30T10:58:50.422Z,101712.03
2022-10-30T11:01:23.666Z,101699.53
2022-10-30T11:03:58.174Z,101698.56
2022-10-30T11:06:40.028Z,101694.91
2022-10-30T11:09:20.346Z,101697.53
2022-10-30T11:11:50.456Z,101696.56
2022-10-30T11:14:29.331Z,101694.72
2022-10-30T11:17:03.739Z,101696.41
2022-10-30T11:19:32.620Z,101700.81
2022-10-30T11:22:02.397Z,101715.00
2022-10-30T11:24:33.205Z,101712.28
2022-10-30T11:27:24.368Z,101710.44
2022-10-30T11:30:01.338Z,101718.34
2022-10-30T11:32:32.850Z,101720.94
2022-10-30T11:35:07.646Z,101717.34
2022-10-30T11:37:40.245Z,101710.16
2022-10-30T11:40:12.536Z,101710.09
2022-10-30T11:43:02.925Z,101714.47
2022-10-30T11:45:38.511Z,101710.84
2022-10-30T11:48:31.974Z,101710.84
2022-10-30T11:51:02.326Z,101709.00
2022-10-30T11:53:36.494Z,101701.84
2022-10-30T11:56:15.412Z,101689.34
2022-10-30T11:58:48.400Z,101685.75
2022-10-30T12:01:30.743Z,101686.59
2022-10-30T12:04:35.041Z,101690.09
2022-10-30T12:07:25.276Z,101691.81
2022-10-30T12:09:54.854Z,101694.47
2022-10-30T12:12:42.629Z,101693.59
2022-10-30T12:15:22.943Z,101694.56
2022-10-30T12:18:02.712Z,101690.19
2022-10-30T12:20:33.196Z,101686.69
2022-10-30T12:23:12.631Z,101682.25
2022-10-30T12:25:49.086Z,101685.00
2022-10-30T12:28:23.229Z,101686.78
2022-10-30T12:30:57.943Z,101677.84
2022-10-30T12:33:39.177Z,101678.69
2022-10-30T12:36:14.150Z,101679.56
2022-10-30T12:39:09.466Z,101665.34
2022-10-30T12:41:46.006Z,101665.34
2022-10-30T12:44:18.856Z,101666.22
2022-10-30T12:46:56.325Z,101671.59
2022-10-30T12:49:53.031Z,101672.53
2022-10-30T12:52:45.798Z,101677.00
2022-10-30T12:55:27.910Z,101671.69
2022-10-30T12:58:06.129Z,101664.53
2022-10-30T13:00:44.750Z,101662.78
2022-10-30T13:03:28.505Z,101664.53
2022-10-30T13:06:19.243Z,101662.78
2022-10-30T13:08:52.913Z,101662.81
2022-10-30T13:12:08.293Z,101661.97
2022-10-30T13:14:43.784Z,101662.00
2022-10-30T13:17:13.859Z,101654.06
2022-10-30T13:19:51.083Z,101653.16
2022-10-30T13:22:20.229Z,101654.94
2022-10-30T13:24:56.801Z,101653.16
2022-10-30T13:27:44.520Z,101654.94
2022-10-30T13:30:16.794Z,101658.47
2022-10-30T13:32:51.570Z,101643.31
2022-10-30T13:35:26.115Z,101642.44
2022-10-30T13:38:02.085Z,101646.81
2022-10-30T13:41:07.310Z,101646.81
2022-10-30T13:43:48.884Z,101649.47
2022-10-30T13:47:00.094Z,101653.88
2022-10-30T13:49:46.731Z,101645.94
2022-10-30T13:52:17.835Z,101649.50
2022-10-30T13:55:07.939Z,101650.38
2022-10-30T13:58:03.349Z,101641.50
2022-10-30T14:00:53.105Z,101644.19
2022-10-30T14:04:01.070Z,101650.47
2022-10-30T14:06:40.254Z,101641.59
2022-10-30T14:09:22.739Z,101643.44
2022-10-30T14:11:54.979Z,101647.00
2022-10-30T14:14:30.386Z,101647.94
2022-10-30T14:17:12.267Z,101650.63
2022-10-30T14:20:22.723Z,101645.34
2022-10-30T14:23:13.520Z,101640.94
2022-10-30T14:25:42.859Z,101641.88
2022-10-30T14:28:21.381Z,101644.56
2022-10-30T14:31:06.247Z,101641.03
2022-10-30T14:33:40.865Z,101641.09
2022-10-30T14:36:13.129Z,101639.34
2022-10-30T14:38:51.726Z,101633.16
2022-10-30T14:41:39.443Z,101636.75
2022-10-30T14:44:29.165Z,101638.53
2022-10-30T14:47:19.489Z,101635.91
2022-10-30T14:49:57.571Z,101625.28
2022-10-30T14:53:19.221Z,101627.94
2022-10-30T14:55:52.789Z,101623.56
2022-10-30T14:58:25.483Z,101628.03
2022-10-30T15:01:14.230Z,101632.53
2022-10-30T15:03:45.585Z,101641.47
2022-10-30T15:06:41.210Z,101627.31
2022-10-30T15:09:36.268Z,101614.94
2022-10-30T15:12:38.184Z,101615.03
2022-10-30T15:15:13.454Z,101602.66
2022-10-30T15:17:45.813Z,101615.13
2022-10-30T15:20:21.801Z,101608.09
2022-10-30T15:22:58.322Z,101611.72
2022-10-30T15:25:37.015Z,101615.34
2022-10-30T15:28:16.927Z,101613.66
2022-10-30T15:31:14.510Z,101619.94
2022-10-30T15:33:42.871Z,101608.44
2022-10-30T15:36:20.132Z,101613.84
2022-10-30T15:39:09.169Z,101616.59
2022-10-30T15:41:44.363Z,101615.75
2022-10-30T15:44:18.340Z,101619.34
2022-10-30T15:46:49.002Z,101618.53
2022-10-30T15:49:21.442Z,101630.09
2022-10-30T15:51:49.779Z,101635.47
2022-10-30T15:54:21.285Z,101631.16
2022-10-30T15:57:31.235Z,101644.47
2022-10-30T15:59:53.485Z,101637.44
2022-10-30T16:02:24.058Z,101638.38
2022-10-30T16:04:53.505Z,101658.81
2022-10-30T16:07:24.368Z,101654.44
2022-10-30T16:09:58.716Z,101650.94
2022-10-30T16:12:33.576Z,101654.53
2022-10-30T16:15:28.071Z,101647.50
2022-10-30T16:18:30.725Z,101663.50
2022-10-30T16:21:07.261Z,101658.22
2022-10-30T16:23:41.584Z,101658.25
2022-10-30T16:26:24.830Z,101652.94
2022-10-30T16:28:53.161Z,101639.69
2022-10-30T16:31:21.920Z,101633.50
2022-10-30T16:33:50.771Z,101610.47
2022-10-30T16:36:19.828Z,101610.47
2022-10-30T16:38:50.222Z,101621.09
2022-10-30T16:41:24.185Z,101614.03
2022-10-30T16:44:14.057Z,101614.97
2022-10-30T16:46:55.561Z,101627.34
2022-10-30T16:49:28.878Z,101619.38
2022-10-30T16:52:04.689Z,101625.59
2022-10-30T16:54:37.349Z,101624.69
2022-10-30T16:57:22.543Z,101621.16
2022-10-30T16:59:52.277Z,101630.91
2022-10-30T17:02:25.939Z,101627.38
2022-10-30T17:05:08.652Z,101636.28
2022-10-30T17:07:38.589Z,101644.25
2022-10-30T17:10:58.095Z,101652.22
2022-10-30T17:13:38.290Z,101664.63
2022-10-30T17:16:20.324Z,101669.94
2022-10-30T17:18:55.565Z,101674.38
2022-10-30T17:21:36.945Z,101673.50
2022-10-30T17:24:06.204Z,101678.84
2022-10-30T17:26:41.364Z,101675.31
2022-10-30T17:29:38.308Z,101674.44
2022-10-30T17:32:23.494Z,101693.06
2022-10-30T17:35:02.285Z,101698.34
2022-10-30T17:37:30.624Z,101700.13
2022-10-30T17:39:59.152Z,101701.00
2022-10-30T17:42:27.414Z,101706.34
2022-10-30T17:44:56.064Z,101715.19
2022-10-30T17:47:26.283Z,101716.09
2022-10-30T17:49:54.844Z,101716.97
2022-10-30T17:52:23.222Z,101717.84
2022-10-30T17:54:51.642Z,101724.06
2022-10-30T17:57:20.116Z,101726.72
2022-10-30T17:59:48.454Z,101740.88
2022-10-30T18:02:22.412Z,101734.69
2022-10-30T18:04:52.718Z,101745.31
2022-10-30T18:07:21.061Z,101747.06
2022-10-30T18:09:49.416Z,101752.38
2022-10-30T18:12:19.319Z,101747.06
2022-10-30T18:14:50.387Z,101747.97
2022-10-30T18:17:18.791Z,101746.19
2022-10-30T18:19:48.276Z,101747.09
2022-10-30T18:22:16.631Z,101743.53
2022-10-30T18:24:44.881Z,101741.78
2022-10-30T18:27:13.348Z,101751.50
2022-10-30T18:29:42.488Z,101752.38
2022-10-30T18:32:10.950Z,101767.41
2022-10-30T18:34:39.199Z,101763.91
2022-10-30T18:37:08.595Z,101764.75
2022-10-30T18:42:10.159Z,101763.00
2022-10-30T18:44:38.573Z,101760.34
2022-10-30T18:47:11.154Z,101769.19
2022-10-30T18:49:39.518Z,101770.97
2022-10-30T18:52:09.029Z,101770.06
2022-10-30T18:54:37.310Z,101777.16
2022-10-30T18:57:05.801Z,101771.84
2022-10-30T18:59:34.974Z,101775.38
2022-10-30T19:02:03.763Z,101770.94
2022-10-30T19:04:32.284Z,101768.28
2022-10-30T19:07:00.630Z,101761.22
2022-10-30T19:09:28.943Z,101764.75
2022-10-30T19:11:57.290Z,101744.41
2022-10-30T19:14:25.615Z,101758.56
2022-10-30T19:16:53.999Z,101760.34
2022-10-30T19:19:22.393Z,101754.16
2022-10-30T19:21:52.480Z,101747.97
2022-10-30T19:24:20.833Z,101745.31
2022-10-30T19:26:50.535Z,101741.75
2022-10-30T19:29:18.863Z,101740.00
2022-10-30T19:31:47.273Z,101747.97
2022-10-30T19:34:15.610Z,101753.22
2022-10-30T19:36:43.995Z,101770.03
2022-10-30T19:39:16.873Z,101772.66
2022-10-30T19:41:45.360Z,101777.09
2022-10-30T19:44:13.625Z,101791.22
2022-10-30T19:46:42.154Z,101796.53
2022-10-30T19:49:18.530Z,101797.41
2022-10-30T19:51:47.354Z,101807.16
2022-10-30T19:54:16.234Z,101812.44
2022-10-30T19:56:44.794Z,101812.47
2022-10-30T19:59:14.531Z,101823.97
2022-10-30T20:01:44.722Z,101822.22
2022-10-30T20:04:13.699Z,101823.13
2022-10-30T20:06:42.152Z,101819.56
2022-10-30T20:09:12.395Z,101830.19
2022-10-30T20:11:40.774Z,101839.03
2022-10-30T20:14:09.491Z,101833.75
2022-10-30T20:16:38.058Z,101831.09
2022-10-30T20:19:27.706Z,101843.50
2022-10-30T20:21:56.284Z,101839.06
2022-10-30T20:24:24.614Z,101847.03
2022-10-30T20:26:55.811Z,101848.78
2022-10-30T20:29:25.066Z,101862.94
2022-10-30T20:31:53.555Z,101862.94
2022-10-30T20:34:22.236Z,101858.53
2022-10-30T20:36:50.538Z,101855.88
2022-10-30T20:39:18.874Z,101855.88
2022-10-30T20:41:47.316Z,101861.16
2022-10-30T20:44:16.671Z,101852.34
2022-10-30T20:46:45.183Z,101855.84
2022-10-30T20:49:18.481Z,101863.81
2022-10-30T20:51:47.814Z,101867.34
2022-10-30T20:54:17.551Z,101859.38
2022-10-30T20:56:45.890Z,101861.16
2022-10-30T20:59:14.239Z,101869.09
2022-10-30T21:01:42.758Z,101874.41
2022-10-30T21:04:11.139Z,101876.09
2022-10-30T21:06:39.823Z,101876.09
2022-10-30T21:09:08.171Z,101876.97
2022-10-30T21:11:36.550Z,101876.97
2022-10-30T21:14:04.813Z,101882.25
2022-10-30T21:16:33.652Z,101878.66
2022-10-30T21:19:02.055Z,101892.81
2022-10-30T21:21:30.328Z,101893.69
2022-10-30T21:23:58.772Z,101908.69
2022-10-30T21:26:27.125Z,101906.91
2022-10-30T21:28:55.660Z,101915.69
2022-10-30T21:31:26.103Z,101923.63
2022-10-30T21:33:54.557Z,101929.81
2022-10-30T21:36:23.457Z,101933.28
2022-10-30T21:38:51.754Z,101935.06
2022-10-30T21:41:22.190Z,101940.31
2022-10-30T21:43:59.232Z,101931.47
2022-10-30T21:46:30.147Z,101937.66
2022-10-30T21:49:07.185Z,101934.97
2022-10-30T21:51:35.626Z,101938.50
2022-10-30T21:54:06.274Z,101938.50
2022-10-30T21:56:36.199Z,101949.06
2022-10-30T21:59:05.111Z,101942.88
2022-10-30T22:01:37.190Z,101926.06
2022-10-30T22:04:08.767Z,101920.75
2022-10-30T22:06:42.950Z,101928.69
2022-10-30T22:09:15.356Z,101918.09
2022-10-30T22:11:43.931Z,101913.66
2022-10-30T22:14:12.217Z,101910.97
2022-10-30T22:16:40.756Z,101910.97
2022-10-30T22:19:10.514Z,101915.38
2022-10-30T22:21:38.839Z,101920.66
2022-10-30T22:24:07.431Z,101922.41
2022-10-30T22:26:35.862Z,101932.13
2022-10-30T22:29:04.190Z,101927.72
2022-10-30T22:31:32.504Z,101938.28
2022-10-30T22:34:01.599Z,101922.34
2022-10-30T22:36:32.165Z,101930.31
2022-10-30T22:39:01.822Z,101928.50
2022-10-30T22:41:34.500Z,101933.78
2022-10-30T22:44:15.133Z,101932.00
2022-10-30T22:46:43.535Z,101932.88
2022-10-30T22:49:12.195Z,101936.34
2022-10-30T22:51:40.712Z,101937.22
2022-10-30T22:54:12.514Z,101935.44
2022-10-30T22:56:41.702Z,101938.06
2022-10-30T22:59:13.472Z,101938.03
2022-10-30T23:01:42.096Z,101941.53
2022-10-30T23:04:11.956Z,101946.75
2022-10-30T23:06:40.294Z,101951.13
2022-10-30T23:09:15.139Z,101946.69
2022-10-30T23:11:43.933Z,101939.59
2022-10-30T23:14:12.327Z,101941.31
2022-10-30T23:16:41.111Z,101949.22
2022-10-30T23:19:11.244Z,101945.66
2022-10-30T23:21:39.710Z,101945.59
2022-10-30T23:24:08.054Z,101952.63
2022-10-30T23:26:36.545Z,101956.16
2022-10-30T23:29:05.404Z,101963.16
2022-10-30T23:31:40.444Z,101969.31
2022-10-30T23:34:12.373Z,101973.63
2022-10-30T23:36:42.040Z,101976.22
2022-10-30T23:39:14.926Z,101980.59
2022-10-30T23:41:43.524Z,101981.44
2022-10-30T23:44:14.358Z,101982.22
2022-10-30T23:46:43.499Z,101985.72
2022-10-30T23:49:11.791Z,101994.50
2022-10-30T23:51:40.084Z,101995.34
2022-10-30T23:54:08.866Z,101996.13
2022-10-30T23:56:37.131Z,101989.06
2022-10-30T23:59:07.564Z,101988.13
